createdAt,value
2019-02-17T00:02:08.154Z,76.04
2019-02-17T00:04:37.358Z,76.11
2019-02-17T00:07:06.950Z,76.31
2019-02-17T00:09:36.527Z,76.43
2019-02-17T00:12:05.816Z,76.51
2019-02-17T00:14:35.050Z,76.67
2019-02-17T00:17:04.337Z,76.47
2019-02-17T00:19:34.277Z,76.59
2019-02-17T00:22:03.581Z,76.49
2019-02-17T00:24:32.825Z,76.48
2019-02-17T00:27:02.407Z,76.45
2019-02-17T00:29:32.496Z,76.50
2019-02-17T00:32:02.068Z,76.33
2019-02-17T00:34:32.254Z,76.15
2019-02-17T00:37:01.511Z,75.96
2019-02-17T00:39:30.785Z,75.83
2019-02-17T00:42:00.051Z,75.69
2019-02-17T00:44:29.598Z,75.65
2019-02-17T00:47:00.468Z,75.53
2019-02-17T00:49:29.749Z,75.58
2019-02-17T00:51:59.381Z,75.62
2019-02-17T00:54:28.596Z,75.82
2019-02-17T00:56:59.716Z,75.95
2019-02-17T00:59:28.980Z,76.20
2019-02-17T01:02:06.682Z,76.11
2019-02-17T01:04:36.207Z,76.25
2019-02-17T01:07:06.150Z,76.20
2019-02-17T01:09:35.387Z,76.34
2019-02-17T01:12:04.700Z,76.33
2019-02-17T01:14:37.015Z,76.26
2019-02-17T01:17:06.242Z,76.41
2019-02-17T01:19:35.521Z,76.63
2019-02-17T01:22:04.761Z,76.64
2019-02-17T01:24:34.383Z,76.75
2019-02-17T01:27:03.597Z,76.85
2019-02-17T01:29:34.367Z,76.85
2019-02-17T01:32:05.112Z,76.84
2019-02-17T01:34:35.062Z,76.74
2019-02-17T01:37:08.681Z,76.82
2019-02-17T01:39:39.227Z,76.76
2019-02-17T01:42:10.963Z,76.72
2019-02-17T01:44:40.212Z,76.86
2019-02-17T01:47:11.915Z,76.90
2019-02-17T01:49:41.531Z,77.02
2019-02-17T01:52:13.037Z,77.09
2019-02-17T01:54:42.579Z,77.25
2019-02-17T01:57:14.876Z,77.52
2019-02-17T01:59:44.492Z,77.29
2019-02-17T02:02:16.890Z,77.35
2019-02-17T02:04:46.166Z,77.51
2019-02-17T02:07:15.410Z,77.71
2019-02-17T02:09:45.148Z,77.89
2019-02-17T02:12:14.396Z,77.78
2019-02-17T02:14:43.936Z,77.61
2019-02-17T02:17:13.483Z,77.59
2019-02-17T02:19:43.312Z,77.48
2019-02-17T02:22:13.989Z,77.55
2019-02-17T02:24:44.701Z,77.35
2019-02-17T02:27:15.045Z,77.47
2019-02-17T02:29:47.959Z,77.17
2019-02-17T02:32:18.705Z,77.20
2019-02-17T02:34:49.250Z,77.17
2019-02-17T02:37:19.685Z,77.18
2019-02-17T02:39:51.654Z,77.22
2019-02-17T02:42:29.164Z,77.17
2019-02-17T02:44:59.224Z,77.31
2019-02-17T02:47:29.653Z,77.30
2019-02-17T02:50:01.472Z,77.60
2019-02-17T02:52:32.824Z,77.85
2019-02-17T02:55:02.072Z,78.26
2019-02-17T02:57:34.533Z,78.32
2019-02-17T03:00:06.087Z,78.25
2019-02-17T03:02:37.470Z,77.98
2019-02-17T03:05:07.073Z,77.96
2019-02-17T03:07:36.589Z,78.07
2019-02-17T03:10:06.945Z,78.18
2019-02-17T03:12:37.351Z,78.17
2019-02-17T03:15:10.482Z,78.02
2019-02-17T03:17:39.700Z,78.09
2019-02-17T03:20:11.466Z,77.98
2019-02-17T03:22:42.818Z,77.81
2019-02-17T03:25:19.403Z,77.80
2019-02-17T03:27:49.004Z,77.79
2019-02-17T03:30:18.934Z,77.79
2019-02-17T03:32:48.971Z,77.69
2019-02-17T03:35:18.288Z,77.62
2019-02-17T03:37:49.156Z,77.66
2019-02-17T03:40:21.285Z,77.57
2019-02-17T03:42:51.083Z,77.61
2019-02-17T03:45:22.213Z,77.57
2019-02-17T03:47:52.923Z,77.82
2019-02-17T03:50:22.792Z,77.82
2019-02-17T03:52:54.754Z,77.92
2019-02-17T03:55:24.101Z,77.84
2019-02-17T03:57:53.358Z,77.93
2019-02-17T04:00:22.615Z,77.82
2019-02-17T04:02:51.855Z,78.03
2019-02-17T04:05:23.281Z,78.07
2019-02-17T04:07:52.517Z,78.14
2019-02-17T04:10:22.344Z,78.35
2019-02-17T04:12:51.884Z,78.67
2019-02-17T04:15:22.619Z,78.86
2019-02-17T04:17:52.820Z,79.29
2019-02-17T04:20:22.801Z,79.44
2019-02-17T04:22:53.692Z,79.53
2019-02-17T04:25:23.716Z,79.56
2019-02-17T04:27:57.509Z,79.76
2019-02-17T04:30:29.643Z,79.69
2019-02-17T04:32:58.841Z,79.69
2019-02-17T04:35:28.702Z,79.57
2019-02-17T04:37:58.479Z,79.47
2019-02-17T04:40:28.656Z,79.35
2019-02-17T04:43:00.099Z,79.16
2019-02-17T04:45:30.244Z,79.05
2019-02-17T04:48:00.943Z,79.10
2019-02-17T04:50:30.255Z,78.90
2019-02-17T04:52:59.468Z,78.78
2019-02-17T04:55:32.063Z,79.03
2019-02-17T04:58:01.585Z,78.95
2019-02-17T05:00:39.676Z,78.68
2019-02-17T05:03:03.256Z,78.39
2019-02-17T05:05:32.779Z,78.37
2019-02-17T05:08:03.099Z,78.54
2019-02-17T05:10:32.338Z,78.43
2019-02-17T05:13:01.572Z,78.53
2019-02-17T05:15:31.841Z,78.51
2019-02-17T05:18:01.099Z,78.51
2019-02-17T05:20:32.394Z,78.58
2019-02-17T05:23:03.866Z,78.70
2019-02-17T05:25:33.351Z,78.75
2019-02-17T05:28:02.566Z,78.61
2019-02-17T05:30:32.068Z,78.81
2019-02-17T05:33:02.949Z,78.94
2019-02-17T05:35:34.813Z,79.15
2019-02-17T05:38:05.949Z,78.93
2019-02-17T05:40:38.405Z,79.12
2019-02-17T05:43:08.564Z,79.10
2019-02-17T05:45:37.863Z,79.26
2019-02-17T05:48:07.877Z,79.49
2019-02-17T05:50:38.791Z,79.67
2019-02-17T05:53:09.081Z,79.74
2019-02-17T05:55:45.435Z,79.66
2019-02-17T05:58:17.808Z,79.63
2019-02-17T06:00:51.362Z,79.52
2019-02-17T06:03:23.173Z,79.65
2019-02-17T06:05:53.018Z,79.51
2019-02-17T06:09:22.147Z,79.57
2019-02-17T06:11:51.406Z,79.75
2019-02-17T06:14:20.661Z,79.91
2019-02-17T06:16:49.937Z,80.08
2019-02-17T06:19:19.206Z,79.97
2019-02-17T06:21:48.478Z,79.73
2019-02-17T06:24:17.757Z,79.27
2019-02-17T06:26:47.040Z,79.32
2019-02-17T06:29:16.266Z,79.40
2019-02-17T06:31:45.559Z,79.35
2019-02-17T06:34:14.792Z,79.49
2019-02-17T06:36:44.186Z,79.57
2019-02-17T06:39:13.410Z,79.59
2019-02-17T06:41:42.667Z,79.45
2019-02-17T06:44:11.910Z,79.33
2019-02-17T06:46:48.355Z,79.28
2019-02-17T06:49:17.603Z,79.16
2019-02-17T06:51:46.858Z,78.78
2019-02-17T06:54:16.103Z,78.35
2019-02-17T06:56:49.948Z,78.15
2019-02-17T06:59:19.176Z,77.68
2019-02-17T07:01:48.579Z,77.27
2019-02-17T07:04:18.692Z,76.55
2019-02-17T07:07:00.737Z,76.23
2019-02-17T07:09:29.965Z,75.54
2019-02-17T07:11:59.326Z,74.90
2019-02-17T07:14:28.656Z,74.26
2019-02-17T07:16:58.168Z,73.04
2019-02-17T07:19:27.525Z,72.92
2019-02-17T07:21:56.819Z,71.70
2019-02-17T07:24:26.182Z,71.21
2019-02-17T07:26:55.401Z,70.33
2019-02-17T07:29:24.712Z,70.27
2019-02-17T07:31:53.948Z,69.78
2019-02-17T07:34:23.229Z,68.67
2019-02-17T07:36:52.469Z,68.09
2019-02-17T07:39:21.728Z,66.81
2019-02-17T07:41:50.957Z,65.11
2019-02-17T07:44:20.199Z,61.57
2019-02-17T07:46:49.532Z,56.37
2019-02-17T07:49:18.808Z,48.51
2019-02-17T07:51:48.026Z,42.71
2019-02-17T07:54:17.280Z,39.91
2019-02-17T07:56:48.436Z,37.00
2019-02-17T07:59:17.475Z,34.49
2019-02-17T08:01:46.723Z,32.49
2019-02-17T08:04:15.984Z,30.55
2019-02-17T08:06:45.245Z,30.06
2019-02-17T08:09:14.493Z,29.15
2019-02-17T08:11:43.742Z,27.85
2019-02-17T08:14:12.993Z,27.35
2019-02-17T08:16:42.217Z,28.03
2019-02-17T08:19:11.484Z,29.37
2019-02-17T08:21:40.717Z,29.68
2019-02-17T08:24:09.964Z,30.05
2019-02-17T08:26:39.176Z,29.20
2019-02-17T08:29:08.451Z,27.78
2019-02-17T08:31:37.682Z,28.34
2019-02-17T08:34:06.920Z,29.88
2019-02-17T08:36:36.173Z,29.46
2019-02-17T08:39:06.330Z,30.95
2019-02-17T08:41:35.647Z,31.79
2019-02-17T08:44:04.886Z,32.04
2019-02-17T08:46:34.153Z,31.88
2019-02-17T08:49:03.437Z,31.60
2019-02-17T08:51:32.697Z,34.24
2019-02-17T08:54:01.924Z,37.09
2019-02-17T08:56:31.280Z,39.48
2019-02-17T08:59:00.502Z,40.42
2019-02-17T09:01:29.882Z,41.19
2019-02-17T09:03:59.124Z,41.42
2019-02-17T09:06:28.393Z,41.64
2019-02-17T09:08:57.674Z,41.65
2019-02-17T09:11:27.054Z,42.06
2019-02-17T09:13:56.328Z,42.21
2019-02-17T09:16:25.600Z,41.73
2019-02-17T09:18:54.921Z,41.79
2019-02-17T09:21:24.174Z,42.36
2019-02-17T09:23:53.406Z,41.99
2019-02-17T09:26:22.656Z,42.51
2019-02-17T09:28:51.939Z,42.23
2019-02-17T09:31:21.196Z,43.05
2019-02-17T09:33:50.444Z,43.21
2019-02-17T09:36:19.721Z,42.55
2019-02-17T09:38:48.953Z,43.33
2019-02-17T09:41:18.222Z,43.10
2019-02-17T09:43:47.473Z,41.57
2019-02-17T09:46:16.746Z,40.97
2019-02-17T09:48:45.998Z,39.61
2019-02-17T09:51:15.271Z,38.99
2019-02-17T09:53:44.520Z,38.60
2019-02-17T09:56:13.790Z,38.67
2019-02-17T09:58:43.010Z,38.37
2019-02-17T10:01:12.255Z,37.94
2019-02-17T10:03:44.451Z,37.69
2019-02-17T10:06:13.710Z,37.24
2019-02-17T10:08:43.019Z,37.43
2019-02-17T10:11:12.274Z,37.06
2019-02-17T10:13:41.536Z,36.39
2019-02-17T10:16:10.912Z,37.13
2019-02-17T10:18:40.137Z,38.69
2019-02-17T10:21:09.387Z,41.38
2019-02-17T10:23:38.627Z,40.79
2019-02-17T10:26:07.882Z,40.91
2019-02-17T10:28:42.377Z,40.89
2019-02-17T10:31:08.097Z,41.08
2019-02-17T10:33:37.341Z,41.31
2019-02-17T10:36:06.599Z,41.22
2019-02-17T10:38:35.918Z,39.48
2019-02-17T10:41:05.193Z,38.94
2019-02-17T10:43:34.427Z,38.00
2019-02-17T10:46:05.960Z,39.84
2019-02-17T10:48:34.638Z,37.89
2019-02-17T10:51:03.911Z,37.87
2019-02-17T10:53:33.169Z,37.13
2019-02-17T10:56:02.433Z,36.56
2019-02-17T10:58:31.659Z,37.49
2019-02-17T11:01:00.902Z,36.96
2019-02-17T11:03:30.165Z,38.20
2019-02-17T11:05:59.479Z,39.31
2019-02-17T11:08:28.720Z,39.48
2019-02-17T11:10:57.986Z,40.55
2019-02-17T11:13:27.242Z,40.36
2019-02-17T11:15:56.459Z,41.97
2019-02-17T11:18:25.709Z,42.01
2019-02-17T11:20:54.967Z,43.46
2019-02-17T11:23:24.219Z,41.85
2019-02-17T11:25:53.437Z,42.27
2019-02-17T11:28:22.833Z,41.82
2019-02-17T11:30:52.060Z,42.15
2019-02-17T11:33:21.315Z,42.42
2019-02-17T11:35:50.529Z,41.79
2019-02-17T11:38:19.791Z,41.92
2019-02-17T11:40:49.018Z,42.87
2019-02-17T11:43:18.255Z,42.71
2019-02-17T11:45:47.483Z,41.40
2019-02-17T11:48:16.747Z,40.46
2019-02-17T11:50:46.013Z,41.47
2019-02-17T11:53:15.274Z,42.42
2019-02-17T11:55:44.579Z,41.32
2019-02-17T11:58:13.821Z,41.49
2019-02-17T12:00:43.088Z,43.05
2019-02-17T12:03:12.329Z,42.54
2019-02-17T12:05:41.562Z,41.21
2019-02-17T12:08:10.876Z,42.32
2019-02-17T12:10:40.111Z,41.52
2019-02-17T12:13:09.337Z,42.25
2019-02-17T12:15:38.612Z,41.46
2019-02-17T12:18:08.023Z,40.55
2019-02-17T12:20:45.636Z,39.49
2019-02-17T12:23:24.992Z,39.06
2019-02-17T12:26:01.353Z,37.41
2019-02-17T12:28:58.736Z,37.94
2019-02-17T12:31:31.865Z,37.39
2019-02-17T12:34:01.148Z,36.63
2019-02-17T12:36:30.407Z,33.21
2019-02-17T12:38:59.675Z,35.96
2019-02-17T12:41:28.980Z,36.87
2019-02-17T12:43:58.208Z,35.48
2019-02-17T12:46:27.472Z,37.34
2019-02-17T12:48:56.721Z,37.06
2019-02-17T12:51:25.975Z,36.19
2019-02-17T12:53:55.250Z,37.30
2019-02-17T12:56:24.466Z,38.13
2019-02-17T12:58:53.717Z,37.92
2019-02-17T13:01:22.945Z,36.84
2019-02-17T13:03:52.175Z,36.57
2019-02-17T13:06:21.445Z,36.85
2019-02-17T13:08:50.686Z,36.89
2019-02-17T13:11:19.948Z,35.97
2019-02-17T13:13:49.176Z,37.53
2019-02-17T13:16:18.446Z,36.97
2019-02-17T13:18:47.674Z,33.93
2019-02-17T13:21:16.924Z,35.25
2019-02-17T13:23:46.166Z,34.46
2019-02-17T13:26:15.435Z,34.52
2019-02-17T13:28:44.694Z,33.88
2019-02-17T13:31:13.957Z,31.69
2019-02-17T13:33:43.243Z,31.66
2019-02-17T13:36:12.497Z,29.52
2019-02-17T13:38:41.736Z,32.00
2019-02-17T13:41:10.982Z,30.31
2019-02-17T13:43:40.230Z,30.31
2019-02-17T13:46:09.496Z,30.66
2019-02-17T13:48:38.745Z,31.75
2019-02-17T13:51:08.040Z,31.84
2019-02-17T13:53:37.275Z,30.50
2019-02-17T13:56:06.518Z,29.75
2019-02-17T13:58:35.826Z,29.75
2019-02-17T14:01:05.082Z,29.44
2019-02-17T14:03:34.345Z,28.30
2019-02-17T14:06:03.603Z,28.62
2019-02-17T14:08:32.833Z,28.36
2019-02-17T14:11:02.084Z,29.11
2019-02-17T14:13:31.306Z,28.07
2019-02-17T14:16:00.584Z,30.00
2019-02-17T14:18:29.815Z,28.39
2019-02-17T14:20:59.078Z,27.53
2019-02-17T14:23:28.487Z,28.01
2019-02-17T14:25:57.735Z,29.17
2019-02-17T14:28:26.975Z,29.74
2019-02-17T14:30:56.245Z,29.07
2019-02-17T14:33:25.489Z,28.24
2019-02-17T14:35:54.741Z,28.08
2019-02-17T14:38:23.981Z,28.33
2019-02-17T14:40:53.248Z,29.52
2019-02-17T14:43:22.484Z,30.18
2019-02-17T14:45:51.771Z,32.07
2019-02-17T14:48:21.009Z,32.30
2019-02-17T14:50:50.296Z,32.58
2019-02-17T14:53:19.543Z,31.26
2019-02-17T14:55:48.806Z,31.20
2019-02-17T14:58:18.055Z,31.39
2019-02-17T15:00:47.312Z,31.60
2019-02-17T15:03:16.680Z,30.88
2019-02-17T15:05:45.926Z,31.33
2019-02-17T15:08:15.184Z,30.82
2019-02-17T15:10:44.426Z,30.14
2019-02-17T15:13:13.698Z,29.46
2019-02-17T15:15:42.922Z,29.08
2019-02-17T15:18:12.218Z,29.07
2019-02-17T15:20:41.465Z,30.61
2019-02-17T15:23:11.590Z,31.56
2019-02-17T15:25:40.825Z,33.51
2019-02-17T15:28:10.077Z,34.12
2019-02-17T15:30:39.309Z,34.41
2019-02-17T15:33:08.556Z,36.65
2019-02-17T15:35:37.803Z,37.37
2019-02-17T15:38:07.065Z,38.71
2019-02-17T15:40:36.360Z,38.71
2019-02-17T15:43:05.669Z,39.24
2019-02-17T15:45:34.911Z,39.89
2019-02-17T15:48:04.242Z,40.74
2019-02-17T15:50:33.508Z,41.86
2019-02-17T15:53:02.774Z,42.97
2019-02-17T15:55:32.007Z,42.57
2019-02-17T15:58:01.278Z,42.45
2019-02-17T16:00:30.523Z,41.98
2019-02-17T16:02:59.767Z,41.09
2019-02-17T16:05:29.029Z,39.52
2019-02-17T16:07:58.280Z,39.29
2019-02-17T16:10:27.501Z,39.38
2019-02-17T16:12:56.751Z,40.99
2019-02-17T16:15:25.996Z,41.77
2019-02-17T16:17:55.247Z,41.72
2019-02-17T16:20:24.468Z,42.38
2019-02-17T16:22:53.735Z,42.75
2019-02-17T16:25:22.959Z,42.57
2019-02-17T16:27:52.211Z,42.87
2019-02-17T16:30:21.497Z,42.83
2019-02-17T16:32:50.732Z,43.13
2019-02-17T16:35:20.020Z,43.42
2019-02-17T16:37:49.266Z,43.66
2019-02-17T16:40:18.525Z,44.13
2019-02-17T16:42:48.044Z,45.22
2019-02-17T16:45:17.310Z,45.89
2019-02-17T16:47:46.555Z,46.17
2019-02-17T16:50:17.880Z,46.58
2019-02-17T16:52:47.096Z,47.90
2019-02-17T16:55:16.359Z,48.86
2019-02-17T16:57:45.692Z,48.45
2019-02-17T17:00:21.259Z,49.13
2019-02-17T17:02:50.712Z,49.51
2019-02-17T17:05:20.053Z,49.80
2019-02-17T17:07:49.281Z,49.78
2019-02-17T17:10:18.600Z,50.42
2019-02-17T17:12:48.055Z,51.17
2019-02-17T17:15:17.708Z,51.64
2019-02-17T17:17:46.955Z,52.41
2019-02-17T17:20:16.373Z,52.81
2019-02-17T17:22:45.615Z,53.21
2019-02-17T17:25:15.217Z,53.74
2019-02-17T17:27:44.675Z,54.00
2019-02-17T17:30:14.158Z,53.96
2019-02-17T17:32:43.379Z,54.16
2019-02-17T17:35:12.624Z,54.99
2019-02-17T17:37:41.851Z,55.26
2019-02-17T17:40:11.705Z,55.67
2019-02-17T17:42:41.019Z,55.85
2019-02-17T17:45:12.511Z,56.54
2019-02-17T17:47:41.729Z,57.07
2019-02-17T17:50:12.337Z,57.33
2019-02-17T17:52:41.557Z,57.49
2019-02-17T17:55:11.145Z,57.50
2019-02-17T17:57:40.360Z,57.72
2019-02-17T18:00:11.954Z,57.17
2019-02-17T18:02:41.186Z,57.18
2019-02-17T18:05:10.640Z,57.08
2019-02-17T18:07:40.014Z,57.22
2019-02-17T18:10:11.474Z,57.54
2019-02-17T18:12:40.700Z,58.17
2019-02-17T18:15:11.260Z,58.36
2019-02-17T18:17:40.486Z,58.45
2019-02-17T18:20:11.531Z,58.82
2019-02-17T18:22:40.775Z,59.28
2019-02-17T18:25:11.717Z,59.15
2019-02-17T18:27:40.949Z,59.24
2019-02-17T18:30:11.956Z,59.55
2019-02-17T18:32:41.178Z,59.67
2019-02-17T18:35:19.081Z,60.01
2019-02-17T18:37:41.609Z,60.36
2019-02-17T18:40:11.548Z,60.40
2019-02-17T18:42:40.774Z,60.84
2019-02-17T18:45:11.141Z,60.60
2019-02-17T18:47:40.629Z,60.95
2019-02-17T18:50:12.104Z,60.76
2019-02-17T18:52:41.444Z,60.85
2019-02-17T18:55:11.644Z,61.46
2019-02-17T18:57:49.436Z,61.99
2019-02-17T19:00:15.766Z,62.17
2019-02-17T19:02:44.979Z,62.20
2019-02-17T19:05:14.254Z,62.27
2019-02-17T19:07:43.485Z,62.17
2019-02-17T19:10:12.946Z,62.05
2019-02-17T19:12:42.190Z,62.12
2019-02-17T19:15:12.828Z,62.43
2019-02-17T19:17:42.055Z,62.79
2019-02-17T19:20:13.393Z,62.94
2019-02-17T19:22:42.620Z,63.13
2019-02-17T19:25:11.959Z,63.07
2019-02-17T19:27:41.187Z,63.08
2019-02-17T19:30:11.676Z,63.23
2019-02-17T19:32:40.902Z,63.49
2019-02-17T19:35:11.212Z,63.64
2019-02-17T19:37:40.442Z,63.97
2019-02-17T19:40:10.899Z,64.30
2019-02-17T19:42:40.145Z,64.35
2019-02-17T19:45:10.931Z,64.37
2019-02-17T19:47:40.173Z,64.45
2019-02-17T19:50:10.791Z,64.72
2019-02-17T19:52:40.241Z,64.83
2019-02-17T19:55:09.736Z,64.48
2019-02-17T19:57:39.009Z,64.75
2019-02-17T20:00:10.799Z,64.60
2019-02-17T20:02:59.059Z,64.53
2019-02-17T20:05:30.687Z,64.72
2019-02-17T20:07:59.928Z,64.60
2019-02-17T20:10:29.190Z,64.54
2019-02-17T20:12:58.484Z,64.72
2019-02-17T20:15:30.071Z,64.53
2019-02-17T20:17:59.355Z,64.45
2019-02-17T20:20:28.612Z,64.58
2019-02-17T20:22:57.878Z,64.20
2019-02-17T20:25:27.098Z,64.24
2019-02-17T20:27:56.350Z,64.33
2019-02-17T20:30:25.594Z,64.22
2019-02-17T20:32:54.841Z,64.34
2019-02-17T20:35:24.082Z,64.47
2019-02-17T20:37:53.326Z,64.55
2019-02-17T20:40:22.547Z,64.60
2019-02-17T20:42:51.796Z,64.49
2019-02-17T20:45:21.024Z,64.45
2019-02-17T20:47:50.274Z,64.54
2019-02-17T20:50:19.543Z,64.43
2019-02-17T20:52:48.794Z,64.50
2019-02-17T20:55:18.005Z,64.34
2019-02-17T20:57:47.284Z,64.34
2019-02-17T21:00:17.512Z,64.16
2019-02-17T21:02:46.773Z,64.56
2019-02-17T21:05:16.016Z,64.50
2019-02-17T21:07:45.282Z,64.70
2019-02-17T21:10:14.532Z,64.99
2019-02-17T21:12:43.816Z,65.54
2019-02-17T21:15:13.753Z,65.76
2019-02-17T21:17:43.009Z,65.93
2019-02-17T21:20:12.533Z,66.40
2019-02-17T21:22:41.786Z,66.60
2019-02-17T21:25:11.030Z,67.14
2019-02-17T21:27:40.499Z,67.37
2019-02-17T21:30:10.307Z,67.44
2019-02-17T21:32:39.556Z,67.65
2019-02-17T21:35:10.494Z,68.25
2019-02-17T21:37:39.758Z,68.63
2019-02-17T21:40:10.248Z,68.86
2019-02-17T21:42:39.501Z,69.26
2019-02-17T21:45:10.396Z,69.97
2019-02-17T21:47:39.651Z,70.55
2019-02-17T21:50:10.197Z,71.31
2019-02-17T21:52:41.786Z,71.56
2019-02-17T21:55:10.663Z,71.46
2019-02-17T21:57:39.933Z,71.62
2019-02-17T22:00:12.385Z,71.35
2019-02-17T22:02:41.642Z,71.57
2019-02-17T22:05:10.861Z,71.68
2019-02-17T22:07:40.149Z,71.88
2019-02-17T22:10:10.237Z,71.65
2019-02-17T22:12:40.000Z,71.33
2019-02-17T22:15:11.192Z,71.23
2019-02-17T22:17:40.468Z,71.17
2019-02-17T22:20:10.215Z,71.13
2019-02-17T22:22:39.468Z,71.04
2019-02-17T22:25:08.706Z,70.93
2019-02-17T22:27:37.966Z,70.86
2019-02-17T22:30:08.665Z,70.64
2019-02-17T22:32:37.922Z,70.42
2019-02-17T22:35:07.182Z,70.09
2019-02-17T22:37:36.435Z,70.20
2019-02-17T22:40:05.945Z,70.45
2019-02-17T22:42:35.182Z,70.58
2019-02-17T22:45:04.630Z,70.91
2019-02-17T22:47:33.869Z,70.62
2019-02-17T22:50:03.164Z,70.61
2019-02-17T22:52:32.468Z,70.42
2019-02-17T22:55:01.808Z,71.01
2019-02-17T22:57:31.096Z,71.29
2019-02-17T23:00:00.408Z,71.14
2019-02-17T23:02:29.785Z,71.51
2019-02-17T23:04:59.201Z,71.59
2019-02-17T23:07:28.444Z,71.57
2019-02-17T23:09:57.703Z,71.59
2019-02-17T23:12:27.129Z,71.71
2019-02-17T23:14:56.387Z,71.54
2019-02-17T23:17:25.629Z,71.62
2019-02-17T23:19:54.882Z,71.27
2019-02-17T23:22:24.160Z,71.61
2019-02-17T23:24:53.408Z,71.54
2019-02-17T23:27:22.848Z,71.54
2019-02-17T23:29:52.140Z,71.46
2019-02-17T23:32:21.382Z,71.51
2019-02-17T23:34:50.638Z,71.85
2019-02-17T23:37:19.885Z,71.82
2019-02-17T23:39:49.132Z,71.39
2019-02-17T23:42:18.356Z,71.60
2019-02-17T23:44:47.591Z,71.69
2019-02-17T23:47:16.817Z,71.79
2019-02-17T23:49:46.097Z,71.95
2019-02-17T23:52:15.354Z,71.90
2019-02-17T23:54:44.608Z,72.04
2019-02-17T23:57:13.836Z,72.07
2019-02-17T23:59:43.094Z,72.23
